createdAt,value
2022-12-23T00:00:00.283Z,4.9
2022-12-23T00:10:00.313Z,5.0
2022-12-23T00:20:00.278Z,5.1
2022-12-23T00:30:00.259Z,5.2
2022-12-23T00:40:06.290Z,5.3
2022-12-23T00:50:00.270Z,5.5
2022-12-23T01:00:00.990Z,5.6
2022-12-23T01:10:00.807Z,5.8
2022-12-23T01:20:00.384Z,5.9
2022-12-23T01:30:00.520Z,5.8
2022-12-23T01:40:00.546Z,5.8
2022-12-23T01:50:00.514Z,5.7
2022-12-23T02:00:00.807Z,5.5
2022-12-23T02:10:00.600Z,5.4
2022-12-23T02:20:00.372Z,5.2
2022-12-23T02:30:01.191Z,5.2
2022-12-23T02:40:00.853Z,5.3
2022-12-23T02:50:01.458Z,5.3
2022-12-23T03:00:00.310Z,5.3
2022-12-23T03:10:00.243Z,5.2
2022-12-23T03:20:00.239Z,4.9
2022-12-23T03:30:00.250Z,4.4
2022-12-23T03:40:00.318Z,3.7
2022-12-23T03:50:00.442Z,3.5
2022-12-23T04:00:00.677Z,3.5
2022-12-23T04:10:00.373Z,3.6
2022-12-23T04:20:00.806Z,3.8
2022-12-23T04:30:00.744Z,3.9
2022-12-23T04:40:01.032Z,3.8
2022-12-23T04:50:00.840Z,3.8
2022-12-23T05:00:00.659Z,3.8
2022-12-23T05:10:00.362Z,3.8
2022-12-23T05:20:00.581Z,3.7
2022-12-23T05:30:00.685Z,3.7
2022-12-23T05:40:00.754Z,3.5
2022-12-23T05:50:00.787Z,3.5
2022-12-23T06:00:01.291Z,3.4
2022-12-23T06:10:01.019Z,3.3
2022-12-23T06:20:00.619Z,3.1
2022-12-23T06:30:00.446Z,3.2
2022-12-23T06:40:00.244Z,3.2
2022-12-23T06:50:00.255Z,3.2
2022-12-23T07:00:00.339Z,3.3
2022-12-23T07:10:00.347Z,3.3
2022-12-23T07:20:00.270Z,3.4
2022-12-23T07:30:00.281Z,3.7
2022-12-23T07:40:06.508Z,3.8
2022-12-23T07:50:00.875Z,3.7
2022-12-23T08:00:01.296Z,3.7
2022-12-23T08:10:00.433Z,3.8
2022-12-23T08:20:00.452Z,3.7
2022-12-23T08:30:00.351Z,3.7
2022-12-23T08:40:01.917Z,3.5
2022-12-23T08:50:00.931Z,3.7
2022-12-23T09:00:00.336Z,4.0
2022-12-23T09:10:00.284Z,4.0
2022-12-23T09:20:00.267Z,3.9
2022-12-23T09:30:00.286Z,4.2
2022-12-23T09:40:00.272Z,4.1
2022-12-23T09:50:00.249Z,4.3
2022-12-23T10:00:00.314Z,4.3
2022-12-23T10:10:00.250Z,4.2
2022-12-23T10:20:00.239Z,4.1
2022-12-23T10:30:13.893Z,4.1
2022-12-23T10:40:00.243Z,4.3
2022-12-23T10:50:00.239Z,4.3
2022-12-23T11:00:00.304Z,4.7
2022-12-23T11:10:00.270Z,4.9
2022-12-23T11:20:00.267Z,5.2
2022-12-23T11:30:00.288Z,5.3
2022-12-23T11:40:00.280Z,5.3
2022-12-23T11:50:00.266Z,5.3
2022-12-23T12:00:00.294Z,5.3
2022-12-23T12:10:00.242Z,5.3
2022-12-23T12:20:00.373Z,5.5
2022-12-23T12:30:06.156Z,5.4
2022-12-23T12:40:00.622Z,5.3
2022-12-23T12:50:00.672Z,5.3
2022-12-23T13:00:06.089Z,5.3
2022-12-23T13:10:00.748Z,5.3
2022-12-23T13:20:00.637Z,5.0
2022-12-23T13:30:00.365Z,5.0
2022-12-23T13:40:00.364Z,4.9
2022-12-23T13:50:00.251Z,4.9
2022-12-23T14:00:05.353Z,4.9
2022-12-23T14:10:00.259Z,4.9
2022-12-23T14:20:00.290Z,4.7
2022-12-23T14:30:05.726Z,4.7
2022-12-23T14:40:00.255Z,4.7
2022-12-23T14:50:01.053Z,4.7
2022-12-23T15:00:01.480Z,4.6
2022-12-23T15:10:01.606Z,4.6
2022-12-23T15:20:00.511Z,4.5
2022-12-23T15:30:00.360Z,4.4
2022-12-23T15:40:11.446Z,4.5
2022-12-23T15:50:00.493Z,4.4
2022-12-23T16:00:01.337Z,4.4
2022-12-23T16:10:00.472Z,4.3
2022-12-23T16:20:00.257Z,4.2
2022-12-23T16:30:00.530Z,4.2
2022-12-23T16:40:00.462Z,4.2
2022-12-23T16:50:00.263Z,4.1
2022-12-23T17:00:00.680Z,4.0
2022-12-23T17:10:00.337Z,3.8
2022-12-23T17:20:00.294Z,3.5
2022-12-23T17:30:00.242Z,3.3
2022-12-23T17:40:00.270Z,3.1
2022-12-23T17:50:00.253Z,3.2
2022-12-23T18:00:00.333Z,3.0
2022-12-23T18:10:00.221Z,2.6
2022-12-23T18:20:00.227Z,2.3
2022-12-23T18:30:00.304Z,2.2
2022-12-23T18:40:00.365Z,2.2
2022-12-23T18:50:00.249Z,2.3
2022-12-23T19:00:00.272Z,2.3
2022-12-23T19:10:00.230Z,2.4
2022-12-23T19:20:00.248Z,2.5
2022-12-23T19:30:00.382Z,2.6
2022-12-23T19:40:00.261Z,2.8
2022-12-23T19:50:00.237Z,2.9
2022-12-23T20:00:00.300Z,3.0
2022-12-23T20:10:00.284Z,3.1
2022-12-23T20:20:00.255Z,3.3
2022-12-23T20:30:00.304Z,3.2
2022-12-23T20:40:00.264Z,3.1
2022-12-23T20:50:00.255Z,3.2
2022-12-23T21:00:00.438Z,3.2
2022-12-23T21:10:00.425Z,3.3
2022-12-23T21:20:06.954Z,3.4
2022-12-23T21:30:00.323Z,3.5
2022-12-23T21:40:00.325Z,3.5
2022-12-23T21:50:00.259Z,3.5
2022-12-23T22:00:00.329Z,3.4
2022-12-23T22:10:00.246Z,3.3
2022-12-23T22:20:00.250Z,3.2
2022-12-23T22:30:00.257Z,3.1
2022-12-23T22:40:00.297Z,3.1
2022-12-23T22:50:00.254Z,3.1
2022-12-23T23:00:04.774Z,3.2
2022-12-23T23:10:00.301Z,3.2
2022-12-23T23:20:00.285Z,3.3
2022-12-23T23:30:00.282Z,3.4
2022-12-23T23:40:00.318Z,3.5
2022-12-23T23:50:00.264Z,3.6
